Seneca Falls, NY (13148)

2:58 PM EDT on August 27, 2014 (GMT -0400)
State Street | Change Station
CLOSE
Current Station
Personal Weather Station
Location: Seneca Falls, NY
Elevation: 499 ft
Nearby Weather Stations

Elev 499 ft 42.92 °N, 76.80 °W | Updated 1 second ago

Mostly Cloudy
Mostly Cloudy
79.1 °F
Feels Like 82 °F
N
3.0
Wind Variable Wind from WNW
Gusts 6.0 mph

Today
High -- | Low -- °F
--% Chance of Precip.
Yesterday
High -- | Low -- °F
Precip. -- in
6:26 AM 7:50 PM
Waxing Crescent, 4% visible
Pressure 30.01 in
Visibility 9.0 miles
Clouds Few 2000 ft
Overcast 4100 ft
Heat Index 82 °F
Dew Point 69 °F
Humidity 70%
Rainfall 0.00 in
Snow Depth Not available.
UV 3 out of 12
Pollen 8.50 out of 12
PM2.5 Good
Flu Activity Not available.
METAR KPEO 271753Z AUTO 32006KT 9SM FEW020 OVC041 24/19 A3003 RMK AO2 SLP160 T02440189 10250 20217 58006

More Conditions Fewer Conditions

Pressure 30.01 in
Visibility 9.0 miles
Clouds Few 2000 ft
Overcast 4100 ft
Heat Index 82 °F
Dew Point 69 °F
Humidity 70%
Rainfall 0.00 in
Snow Depth Not available.
UV 3 out of 12
Pollen 8.50 out of 12
PM2.5 Good
Flu Activity Not available.
METAR KPEO 271753Z AUTO 32006KT 9SM FEW020 OVC041 24/19 A3003 RMK AO2 SLP160 T02440189 10250 20217 58006

More Conditions Fewer Conditions

10-Day Weather Forecast

Almanac

Astronomy

Aug. 27, 2014 Rise Set
Actual Time 6:26 AM EDT 7:50 PM EDT
Civil Twilight 5:56 AM EDT 8:19 PM EDT
Nautical Twilight 5:21 AM EDT 8:55 PM EDT
Astronomical Twilight 4:43 AM EDT 9:32 PM EDT
Moon 8:24 AM EDT 8:36 PM EDT
Length of Visible Light 14h 23m
Length of Day
13h 24m
Tomorrow will be 2m 45s shorter.
Waxing Crescent, 4% of the Moon is Illuminated
Today
Waxing Crescent
Sep 2
First Quarter
Sep 8
Full
Sep 15
Last Quarter
Sep 24
New

Today's Extremes

State Highs State Lows

Community

WunderPhotos

Upload Photos

1,747,752 photos uploaded!

Nearby

Air Quality

  Air Quality AQ Index Pollutant
Yesterday Good
OZONE
Yesterday Good
PM2.5
Current Good
PM2.5
Wednesday Good
OZONE
Wednesday Good
PM2.5
Thursday Good
OZONE
Thursday Good
PM2.5

Snow Depth

Station Depth Elevation
No new snow has been reported.

Earthquake Activity

City Distance Mag. Time & Date
No recent earthquake activity has been reported nearby.
Minimum magnitude displayed is 2.5.

Coastal Water Temperatures

Place Temperature
Alexandria Bay, NY 70.0 °F
Ogdensburg, NY 64.9 °F

Nearby Weather Stations